Time;durP1;ratioP1;P1;durP2;ratioP2;P2;SDS_P1;SDS_P2;PMS_P1;PMS_P2;Temp;Humidity;BMP_temperature;BMP_pressure;BME280_temperature;BME280_humidity;BME280_pressure;Samples;Min_cycle;Max_cycle;Signal;HPM_P1;HPM_P2
2023/03/12 00:00:50;;;;;;;112.93;54.13;;;4.90;99.90;;;;;;5076681;28;20164;-73
2023/03/12 00:03:17;;;;;;;93.20;48.30;;;4.90;99.90;;;;;;5076977;28;20036;-73
2023/03/12 00:05:44;;;;;;;103.25;50.15;;;4.90;99.90;;;;;;5076388;28;20024;-73
2023/03/12 00:08:11;;;;;;;79.53;45.45;;;4.80;99.90;;;;;;5076533;28;20033;-73
2023/03/12 00:10:38;;;;;;;90.95;48.65;;;4.90;99.90;;;;;;5076480;28;20385;-73
2023/03/12 00:13:05;;;;;;;88.25;47.08;;;4.80;99.90;;;;;;5076491;28;20029;-73
2023/03/12 00:15:34;;;;;;;90.05;48.92;;;4.80;99.90;;;;;;5076475;28;20114;-73
2023/03/12 00:18:00;;;;;;;87.15;47.97;;;4.70;99.90;;;;;;5076757;28;20029;-73
2023/03/12 00:20:26;;;;;;;91.50;50.00;;;4.80;99.90;;;;;;5076283;28;20028;-73
2023/03/12 00:22:52;;;;;;;83.45;43.70;;;4.80;99.90;;;;;;5076346;28;20035;-73
2023/03/12 00:25:19;;;;;;;80.18;42.92;;;4.80;99.90;;;;;;5076472;28;20099;-73
2023/03/12 00:27:45;;;;;;;85.38;45.15;;;4.80;99.90;;;;;;5076216;28;20020;-73
2023/03/12 00:30:13;;;;;;;89.63;46.78;;;4.80;99.90;;;;;;5076032;28;20544;-73
2023/03/12 00:32:39;;;;;;;87.85;46.15;;;4.70;99.90;;;;;;5076195;28;20049;-73
2023/03/12 00:35:06;;;;;;;85.70;45.15;;;4.80;99.90;;;;;;5075973;28;20025;-73
2023/03/12 00:37:32;;;;;;;86.72;47.72;;;4.80;99.90;;;;;;5076038;28;20024;-73
2023/03/12 00:40:00;;;;;;;87.15;45.38;;;4.70;99.90;;;;;;5074519;28;20035;-73
2023/03/12 00:42:27;;;;;;;76.22;41.35;;;4.70;99.90;;;;;;5075872;28;20038;-73
2023/03/12 00:44:53;;;;;;;77.30;39.83;;;4.70;99.90;;;;;;5074597;28;20039;-73
2023/03/12 00:47:19;;;;;;;69.65;38.65;;;4.70;99.90;;;;;;5075695;28;20036;-73
2023/03/12 00:49:45;;;;;;;71.38;39.90;;;4.70;99.90;;;;;;5074562;28;20028;-73
2023/03/12 00:52:11;;;;;;;70.97;40.22;;;4.60;99.90;;;;;;5074419;28;20024;-73
2023/03/12 00:54:37;;;;;;;80.20;41.47;;;4.70;99.90;;;;;;5075683;28;20504;-73
2023/03/12 00:57:03;;;;;;;80.35;44.25;;;4.70;99.90;;;;;;5075582;28;20060;-73
2023/03/12 00:59:29;;;;;;;80.10;44.47;;;4.70;99.90;;;;;;5074245;28;20037;-73
2023/03/12 01:01:55;;;;;;;83.18;45.65;;;4.70;99.90;;;;;;5074095;28;20428;-73
2023/03/12 01:04:22;;;;;;;89.80;46.75;;;4.70;99.90;;;;;;5091138;28;20044;-73
2023/03/12 01:06:48;;;;;;;86.68;46.17;;;4.80;99.90;;;;;;5075301;28;20024;-73
2023/03/12 01:09:14;;;;;;;80.78;45.05;;;4.70;99.90;;;;;;5074055;28;20115;-73
2023/03/12 01:11:40;;;;;;;81.35;46.22;;;4.70;99.90;;;;;;5073978;28;20508;-73
2023/03/12 01:14:07;;;;;;;82.97;45.63;;;4.70;99.90;;;;;;5075201;28;20111;-73
2023/03/12 01:16:33;;;;;;;87.57;47.17;;;4.70;99.90;;;;;;5073838;28;20035;-73
2023/03/12 01:19:01;;;;;;;78.40;43.90;;;4.70;99.90;;;;;;5075260;28;20037;-73
2023/03/12 01:21:29;;;;;;;84.90;46.42;;;4.70;99.90;;;;;;5073847;28;20086;-73
2023/03/12 01:23:56;;;;;;;82.03;43.13;;;4.70;99.90;;;;;;5075167;28;20038;-73
2023/03/12 01:26:22;;;;;;;69.50;39.22;;;4.70;99.90;;;;;;5074899;28;20024;-73
2023/03/12 01:28:49;;;;;;;80.32;41.83;;;4.70;99.90;;;;;;5075108;28;20029;-73
2023/03/12 01:31:20;;;;;;;79.20;41.03;;;4.70;99.90;;;;;;5074905;28;20035;-73
2023/03/12 01:33:51;;;;;;;62.35;33.83;;;4.50;99.90;;;;;;5074857;28;20482;-73
2023/03/12 01:36:25;;;;;;;60.75;30.95;;;4.50;99.90;;;;;;5074976;28;20044;-73
2023/03/12 01:38:53;;;;;;;48.15;28.02;;;4.50;99.90;;;;;;5075308;28;20036;-73
2023/03/12 01:41:20;;;;;;;42.53;24.27;;;4.50;99.90;;;;;;5073480;28;20040;-73
2023/03/12 01:43:47;;;;;;;63.22;27.98;;;4.60;99.90;;;;;;5073580;28;20367;-73
2023/03/12 01:46:37;;;;;;;47.17;24.17;;;4.50;99.90;;;;;;5073574;28;20033;-73
2023/03/12 01:49:27;;;;;;;58.10;26.35;;;4.30;99.90;;;;;;5073344;28;20032;-73
2023/03/12 01:52:10;;;;;;;38.70;20.52;;;4.20;99.90;;;;;;5106725;28;20148;-73
2023/03/12 01:54:48;;;;;;;40.25;20.70;;;4.20;99.90;;;;;;5073395;28;20115;-73
2023/03/12 01:57:22;;;;;;;32.90;20.10;;;4.10;99.90;;;;;;5073351;28;20489;-73
2023/03/12 01:59:58;;;;;;;36.95;19.92;;;4.10;99.90;;;;;;5073468;28;20040;-73
2023/03/12 02:02:28;;;;;;;35.97;19.05;;;4.00;99.90;;;;;;5073205;28;20037;-73
2023/03/12 02:05:14;;;;;;;31.50;18.17;;;4.00;99.90;;;;;;5073251;28;20482;-73
2023/03/12 02:07:40;;;;;;;31.13;17.02;;;3.90;99.90;;;;;;5074444;28;20377;-73
2023/03/12 02:10:07;;;;;;;26.15;12.70;;;3.90;99.90;;;;;;5074473;28;20048;-73
2023/03/12 02:12:33;;;;;;;23.92;12.23;;;3.90;99.90;;;;;;5074595;28;20020;-73
2023/03/12 02:14:59;;;;;;;28.02;14.75;;;3.90;99.90;;;;;;5073235;28;20535;-73
2023/03/12 02:17:25;;;;;;;36.33;18.50;;;3.80;99.90;;;;;;5074404;28;20504;-73
2023/03/12 02:20:15;;;;;;;36.28;18.33;;;3.80;99.90;;;;;;5074524;28;20025;-73
2023/03/12 02:22:48;;;;;;;26.08;13.35;;;3.80;99.90;;;;;;5073121;28;20501;-73
2023/03/12 02:25:34;;;;;;;30.65;16.33;;;3.80;99.90;;;;;;5074272;28;20028;-73
2023/03/12 02:28:04;;;;;;;30.02;15.80;;;3.80;99.90;;;;;;5073177;28;20062;-72
2023/03/12 02:30:31;;;;;;;31.65;17.13;;;3.80;99.90;;;;;;5072999;28;20546;-73
2023/03/12 02:33:00;;;;;;;29.27;14.85;;;3.70;99.90;;;;;;5074162;28;20064;-73
2023/03/12 02:35:26;;;;;;;27.33;15.15;;;3.70;99.90;;;;;;5073010;28;20066;-73
2023/03/12 02:37:55;;;;;;;53.40;25.02;;;3.60;99.90;;;;;;5072859;28;20456;-73
2023/03/12 02:40:28;;;;;;;57.45;25.95;;;3.80;99.90;;;;;;5072895;28;20380;-73
2023/03/12 02:42:54;;;;;;;23.58;11.77;;;3.90;99.90;;;;;;5074201;28;20028;-73
2023/03/12 02:45:21;;;;;;;18.45;9.20;;;3.90;99.90;;;;;;5074067;28;20039;-73
2023/03/12 02:47:47;;;;;;;19.30;10.57;;;3.90;99.90;;;;;;5074252;28;20545;-73
2023/03/12 02:50:13;;;;;;;21.88;13.73;;;3.80;99.90;;;;;;5074082;28;20082;-73
2023/03/12 02:52:39;;;;;;;17.02;9.63;;;3.80;99.90;;;;;;5072710;28;20036;-73
2023/03/12 02:55:07;;;;;;;18.48;7.95;;;3.80;99.90;;;;;;5072727;28;20029;-73
2023/03/12 02:57:36;;;;;;;22.42;10.65;;;3.90;99.90;;;;;;5072826;28;20367;-73
2023/03/12 03:00:13;;;;;;;18.13;10.35;;;3.70;99.90;;;;;;5072654;28;20032;-73
2023/03/12 03:02:43;;;;;;;19.83;9.80;;;3.70;99.90;;;;;;5072667;28;20037;-73
2023/03/12 03:05:11;;;;;;;25.30;12.77;;;3.70;99.90;;;;;;5074663;28;20058;-73
2023/03/12 03:07:37;;;;;;;23.13;13.35;;;3.70;99.90;;;;;;5077546;28;20055;-73
2023/03/12 03:10:05;;;;;;;20.02;10.65;;;3.60;99.90;;;;;;5076525;28;20032;-73
2023/03/12 03:12:34;;;;;;;22.70;11.27;;;3.50;99.90;;;;;;5076295;28;20054;-73
2023/03/12 03:15:01;;;;;;;18.45;9.90;;;3.50;99.90;;;;;;5076363;28;20024;-73
2023/03/12 03:17:28;;;;;;;22.75;12.55;;;3.50;99.90;;;;;;5076169;28;20028;-73
2023/03/12 03:19:54;;;;;;;23.27;12.98;;;3.50;99.90;;;;;;5076324;28;20055;-73
2023/03/12 03:22:21;;;;;;;27.80;13.48;;;3.40;99.90;;;;;;5076167;28;20393;-73
2023/03/12 03:24:47;;;;;;;22.20;12.00;;;3.40;99.90;;;;;;5076173;28;20028;-73
2023/03/12 03:27:14;;;;;;;19.85;10.00;;;3.50;99.90;;;;;;5076039;28;20035;-73
2023/03/12 03:29:40;;;;;;;21.67;11.13;;;3.50;99.90;;;;;;5076009;28;20474;-73
2023/03/12 03:32:07;;;;;;;23.15;11.38;;;3.40;99.90;;;;;;5075969;28;20078;-73
2023/03/12 03:34:33;;;;;;;21.73;12.30;;;3.30;99.90;;;;;;5075764;28;20045;-73
2023/03/12 03:36:59;;;;;;;19.67;10.95;;;3.20;99.90;;;;;;5075855;28;20040;-73
2023/03/12 03:39:27;;;;;;;21.70;11.25;;;3.30;99.90;;;;;;5075832;28;20123;-73
2023/03/12 03:41:53;;;;;;;20.23;11.25;;;3.20;99.90;;;;;;5075831;28;20482;-73
2023/03/12 03:44:22;;;;;;;21.83;11.82;;;3.10;99.90;;;;;;5075685;28;20024;-73
2023/03/12 03:46:49;;;;;;;38.50;16.83;;;3.10;99.90;;;;;;5075709;28;20036;-73
2023/03/12 03:49:15;;;;;;;39.75;17.58;;;3.10;99.90;;;;;;5075597;28;20032;-73
2023/03/12 03:51:42;;;;;;;39.55;17.27;;;3.20;99.90;;;;;;5077002;28;20060;-72
2023/03/12 03:54:11;;;;;;;27.25;12.70;;;3.20;99.90;;;;;;5075586;28;20021;-73
2023/03/12 03:56:39;;;;;;;23.80;11.32;;;3.10;99.90;;;;;;5075766;28;20366;-73
2023/03/12 03:59:05;;;;;;;25.83;11.80;;;3.10;99.90;;;;;;5075430;28;20028;-73
2023/03/12 04:01:33;;;;;;;22.80;10.52;;;3.10;99.90;;;;;;5075478;28;20025;-73
2023/03/12 04:04:00;;;;;;;26.38;11.73;;;3.20;99.90;;;;;;5075360;28;20478;-73
2023/03/12 04:06:28;;;;;;;24.05;11.73;;;3.20;99.90;;;;;;5075183;28;20037;-73
2023/03/12 04:08:58;;;;;;;26.30;12.18;;;3.10;99.90;;;;;;5075275;28;20052;-72
2023/03/12 04:11:25;;;;;;;23.80;12.15;;;3.10;99.90;;;;;;5075397;28;20111;-73
2023/03/12 04:13:52;;;;;;;24.30;11.35;;;3.00;99.90;;;;;;5075176;28;20043;-73
2023/03/12 04:16:22;;;;;;;25.48;12.25;;;2.90;99.90;;;;;;5074867;28;20043;-72
2023/03/12 04:18:51;;;;;;;29.98;16.65;;;2.80;99.90;;;;;;5076463;28;20028;-72
2023/03/12 04:21:17;;;;;;;35.55;19.73;;;2.70;99.90;;;;;;5075223;28;20119;-73
2023/03/12 04:23:44;;;;;;;31.08;16.13;;;2.60;99.90;;;;;;5075265;28;20033;-73
2023/03/12 04:26:12;;;;;;;26.55;14.90;;;2.60;99.90;;;;;;5074741;28;20551;-73
2023/03/12 04:28:38;;;;;;;26.63;17.00;;;2.50;99.90;;;;;;5074965;28;20025;-73
2023/03/12 04:31:07;;;;;;;27.83;17.88;;;2.50;99.90;;;;;;5075129;28;20036;-73
2023/03/12 04:33:39;;;;;;;28.40;16.65;;;2.50;99.90;;;;;;5074649;28;20045;-73
2023/03/12 04:36:07;;;;;;;27.02;15.80;;;2.50;99.90;;;;;;5076273;28;20024;-73
2023/03/12 04:38:35;;;;;;;24.35;15.45;;;2.40;99.90;;;;;;5074645;28;20032;-73
2023/03/12 04:41:06;;;;;;;22.88;14.70;;;2.30;99.90;;;;;;5074679;28;20052;-72
2023/03/12 04:43:33;;;;;;;;;;;2.40;99.90;;;;;;5075295;28;20028;-72
2023/03/12 04:45:59;;;;;;;28.15;14.55;;;2.40;99.90;;;;;;5074665;28;19923;-73
2023/03/12 04:48:26;;;;;;;28.33;16.15;;;2.40;99.90;;;;;;5074619;28;20052;-73
2023/03/12 04:50:52;;;;;;;23.30;14.68;;;2.40;99.90;;;;;;5074510;28;20031;-73
2023/03/12 04:53:20;;;;;;;25.48;16.05;;;2.50;99.90;;;;;;5074342;28;20064;-73
2023/03/12 04:55:47;;;;;;;34.47;17.85;;;2.30;99.90;;;;;;5074544;28;20036;-73
2023/03/12 04:58:15;;;;;;;26.92;15.48;;;2.20;99.90;;;;;;5074446;28;20028;-73
2023/03/12 05:00:42;;;;;;;18.88;11.63;;;2.10;99.90;;;;;;5074266;28;20127;-73
2023/03/12 05:03:08;;;;;;;26.42;13.48;;;2.10;99.90;;;;;;5074286;28;20038;-73
2023/03/12 05:05:37;;;;;;;30.17;17.70;;;2.00;99.90;;;;;;5090842;28;20039;-73
2023/03/12 05:08:04;;;;;;;22.73;12.63;;;2.00;99.90;;;;;;5074128;28;20039;-73
2023/03/12 05:10:32;;;;;;;24.27;11.23;;;2.00;99.90;;;;;;5074133;28;20182;-73
2023/03/12 05:12:58;;;;;;;24.23;10.27;;;1.90;99.90;;;;;;5074003;28;20056;-73
2023/03/12 05:15:25;;;;;;;19.67;10.45;;;1.80;99.90;;;;;;5073854;28;20119;-73
2023/03/12 05:17:51;;;;;;;19.55;10.68;;;1.80;99.90;;;;;;5075347;28;20016;-73
2023/03/12 05:20:18;;;;;;;22.77;10.88;;;1.80;99.90;;;;;;5073819;28;20049;-73
2023/03/12 05:22:46;;;;;;;20.67;10.00;;;1.80;99.90;;;;;;5073844;28;20496;-73
2023/03/12 05:25:13;;;;;;;20.45;10.70;;;1.70;99.90;;;;;;5073782;28;20056;-73
2023/03/12 05:27:39;;;;;;;19.13;10.00;;;1.70;99.90;;;;;;5073045;28;20405;-73
2023/03/12 05:30:06;;;;;;;22.10;12.02;;;2.00;99.90;;;;;;5073740;28;20033;-72
2023/03/12 05:32:32;;;;;;;31.85;17.00;;;2.40;99.90;;;;;;5073621;28;20037;-72
2023/03/12 05:34:59;;;;;;;28.33;15.35;;;2.80;99.90;;;;;;5073492;28;20028;-72
2023/03/12 05:37:25;;;;;;;29.90;15.85;;;3.30;99.90;;;;;;5073541;28;20112;-72
2023/03/12 05:39:53;;;;;;;32.80;15.27;;;3.90;99.90;;;;;;5073627;28;20055;-72
2023/03/12 05:42:19;;;;;;;34.78;15.25;;;4.00;99.90;;;;;;5073527;28;20118;-72
2023/03/12 05:44:47;;;;;;;26.42;13.77;;;4.10;99.90;;;;;;5073595;28;20425;-71
2023/03/12 05:47:17;;;;;;;27.90;14.77;;;4.50;99.90;;;;;;5073538;28;20058;-71
2023/03/12 05:49:43;;;;;;;28.83;15.35;;;5.10;99.90;;;;;;5074634;28;20016;-71
2023/03/12 05:52:10;;;;;;;30.02;14.70;;;5.40;99.90;;;;;;5074838;28;20029;-71
2023/03/12 05:54:36;;;;;;;25.65;13.50;;;5.80;99.90;;;;;;5073445;28;20025;-71
2023/03/12 05:57:04;;;;;;;26.42;13.77;;;6.30;99.90;;;;;;5073535;28;20034;-71
2023/03/12 05:59:30;;;;;;;25.65;13.50;;;6.00;99.90;;;;;;5073389;28;20055;-71
2023/03/12 06:01:57;;;;;;;23.77;13.02;;;6.30;99.90;;;;;;5073197;28;20516;-71
2023/03/12 06:04:23;;;;;;;27.48;13.50;;;6.40;99.90;;;;;;5073338;28;20543;-70
2023/03/12 06:06:51;;;;;;;26.33;13.77;;;6.60;99.90;;;;;;5073051;28;20032;-70
2023/03/12 06:09:17;;;;;;;25.80;14.30;;;6.50;99.90;;;;;;5074531;28;20063;-70
2023/03/12 06:11:43;;;;;;;30.67;13.82;;;6.60;99.90;;;;;;5073150;28;20035;-71
2023/03/12 06:14:09;;;;;;;29.15;15.10;;;6.70;99.90;;;;;;5073139;28;20036;-71
2023/03/12 06:16:36;;;;;;;30.17;15.75;;;6.80;99.90;;;;;;5073107;28;20283;-70
2023/03/12 06:19:03;;;;;;;26.75;14.65;;;7.00;99.90;;;;;;5073072;28;20036;-70
2023/03/12 06:21:32;;;;;;;22.45;12.25;;;7.10;99.90;;;;;;5073063;28;20063;-70
2023/03/12 06:23:59;;;;;;;23.90;12.48;;;7.20;99.90;;;;;;5073071;28;20025;-70
2023/03/12 06:26:30;;;;;;;26.10;13.20;;;7.20;99.90;;;;;;5072900;28;20500;-71
2023/03/12 06:28:56;;;;;;;26.13;13.05;;;7.10;99.90;;;;;;5074307;28;20021;-70
2023/03/12 06:31:22;;;;;;;25.98;13.85;;;7.20;99.90;;;;;;5074382;28;20031;-70
2023/03/12 06:33:48;;;;;;;26.65;13.98;;;7.30;99.90;;;;;;5074322;28;20041;-70
2023/03/12 06:36:15;;;;;;;19.75;10.85;;;7.30;99.90;;;;;;5074299;28;20032;-70
2023/03/12 06:38:41;;;;;;;17.13;10.60;;;7.50;99.90;;;;;;5075566;28;20036;-70
2023/03/12 06:41:10;;;;;;;22.55;10.98;;;7.80;99.90;;;;;;5078333;28;20024;-70
2023/03/12 06:43:38;;;;;;;19.15;10.80;;;7.40;99.90;;;;;;5078262;28;20573;-70
2023/03/12 06:46:05;;;;;;;19.95;10.38;;;7.50;99.90;;;;;;5078174;28;20024;-70
2023/03/12 06:48:35;;;;;;;17.95;10.27;;;7.70;99.90;;;;;;5078270;28;20028;-71
2023/03/12 06:51:05;;;;;;;19.30;10.38;;;8.00;99.90;;;;;;5078141;28;20111;-70
2023/03/12 06:53:31;;;;;;;16.88;8.35;;;8.10;99.90;;;;;;5078215;28;20024;-71
2023/03/12 06:55:57;;;;;;;17.48;9.75;;;8.40;99.90;;;;;;5078077;28;20355;-70
2023/03/12 06:58:24;;;;;;;20.85;11.02;;;8.70;99.90;;;;;;5077919;28;20074;-70
2023/03/12 07:00:50;;;;;;;20.58;10.48;;;8.80;99.90;;;;;;5078009;28;20054;-70
2023/03/12 07:03:16;;;;;;;19.20;10.43;;;8.80;99.90;;;;;;5077934;28;20038;-70
2023/03/12 07:05:46;;;;;;;17.67;10.75;;;9.20;99.90;;;;;;5077578;28;20033;-71
2023/03/12 07:08:13;;;;;;;18.42;10.38;;;9.30;99.90;;;;;;5077930;28;20032;-70
2023/03/12 07:10:40;;;;;;;23.00;11.57;;;9.50;99.90;;;;;;5077693;28;20502;-70
2023/03/12 07:13:06;;;;;;;21.15;11.38;;;9.70;99.90;;;;;;5077655;28;20032;-71
2023/03/12 07:15:32;;;;;;;21.88;11.45;;;9.90;99.90;;;;;;5077591;28;20044;-71
2023/03/12 07:18:06;;;;;;;19.75;12.00;;;10.20;99.90;;;;;;5077552;28;20087;-70
2023/03/12 07:20:34;;;;;;;20.40;11.27;;;10.20;99.90;;;;;;5077628;28;20182;-71
2023/03/12 07:23:00;;;;;;;18.67;10.45;;;10.10;99.90;;;;;;5077465;28;20017;-71
2023/03/12 07:25:26;;;;;;;19.40;10.27;;;10.00;99.90;;;;;;5077313;28;20021;-71
2023/03/12 07:27:52;;;;;;;24.40;11.20;;;10.30;99.90;;;;;;5077349;28;20713;-71
2023/03/12 07:30:18;;;;;;;16.73;9.73;;;9.80;99.90;;;;;;5077379;28;20047;-70
2023/03/12 07:32:44;;;;;;;15.85;8.85;;;9.90;99.90;;;;;;5077169;28;20494;-71
2023/03/12 07:35:10;;;;;;;15.60;8.68;;;10.20;99.90;;;;;;5077357;28;20043;-71
2023/03/12 07:37:36;;;;;;;16.98;9.77;;;10.40;99.90;;;;;;5077306;28;20029;-71
2023/03/12 07:40:06;;;;;;;13.98;8.48;;;10.30;99.90;;;;;;5077153;28;20032;-71
2023/03/12 07:42:32;;;;;;;17.85;9.63;;;10.30;99.90;;;;;;5077189;28;20024;-71
2023/03/12 07:44:59;;;;;;;23.17;10.65;;;9.20;99.90;;;;;;5077101;28;20099;-71
2023/03/12 07:47:25;;;;;;;22.00;10.35;;;9.70;99.90;;;;;;5076849;28;20441;-71
2023/03/12 07:49:51;;;;;;;24.85;10.73;;;9.90;99.90;;;;;;5076444;28;20020;-71
2023/03/12 07:52:18;;;;;;;18.50;8.88;;;10.20;99.90;;;;;;5076887;28;20024;-71
2023/03/12 07:54:45;;;;;;;22.70;10.60;;;10.60;99.90;;;;;;5076770;28;20474;-71
2023/03/12 07:57:11;;;;;;;34.05;14.73;;;10.90;99.90;;;;;;5076856;28;20037;-71
2023/03/12 07:59:37;;;;;;;33.13;12.75;;;10.80;99.90;;;;;;5076788;28;20040;-71
2023/03/12 08:02:03;;;;;;;15.73;7.45;;;10.90;99.90;;;;;;5076720;28;20078;-71
2023/03/12 08:04:29;;;;;;;7.75;3.78;;;11.40;99.90;;;;;;5076648;28;20031;-71
2023/03/12 08:06:54;;;;;;;8.63;4.43;;;11.60;99.90;;;;;;5076316;28;20035;-71
2023/03/12 08:09:20;;;;;;;6.10;3.40;;;12.00;99.90;;;;;;5076632;28;20024;-71
2023/03/12 08:11:46;;;;;;;5.40;3.33;;;12.10;99.90;;;;;;5076622;28;20115;-72
2023/03/12 08:14:12;;;;;;;12.60;7.25;;;12.10;99.90;;;;;;5076618;28;20032;-71
2023/03/12 08:16:38;;;;;;;3.78;3.13;;;12.30;99.90;;;;;;5076455;28;20317;-71
2023/03/12 08:19:04;;;;;;;4.35;3.10;;;12.10;99.90;;;;;;5076506;28;20027;-71
2023/03/12 08:21:30;;;;;;;6.60;3.20;;;12.30;99.90;;;;;;5076364;28;20032;-71
2023/03/12 08:23:56;;;;;;;5.80;3.50;;;12.90;99.90;;;;;;5076317;28;20081;-71
2023/03/12 08:26:22;;;;;;;5.95;2.72;;;13.10;99.90;;;;;;5076296;28;20032;-71
2023/03/12 08:28:48;;;;;;;8.05;2.63;;;13.20;99.90;;;;;;5076304;28;20025;-71
2023/03/12 08:31:14;;;;;;;3.08;2.05;;;13.10;99.90;;;;;;5076153;28;20067;-71
2023/03/12 08:33:42;;;;;;;2.38;1.70;;;13.00;99.90;;;;;;5075787;28;20157;-72
2023/03/12 08:36:09;;;;;;;4.13;1.85;;;12.50;99.90;;;;;;5075914;28;20103;-71
2023/03/12 08:38:35;;;;;;;4.38;1.75;;;12.50;99.90;;;;;;5076100;28;20107;-72
2023/03/12 08:41:01;;;;;;;2.80;1.50;;;12.50;99.90;;;;;;5075912;28;20060;-72
2023/03/12 08:43:28;;;;;;;5.18;2.13;;;12.20;99.90;;;;;;5075967;28;20089;-71
2023/03/12 08:45:58;;;;;;;8.35;2.50;;;12.30;99.90;;;;;;5075825;28;20032;-71
2023/03/12 08:48:25;;;;;;;3.08;1.90;;;13.00;99.90;;;;;;5076008;28;20495;-71
2023/03/12 08:50:57;;;;;;;2.78;1.30;;;13.60;99.90;;;;;;5075754;28;20478;-72
2023/03/12 08:53:26;;;;;;;2.80;1.23;;;13.10;99.90;;;;;;5075795;28;20032;-72
2023/03/12 08:55:53;;;;;;;1.45;1.10;;;13.10;99.90;;;;;;5075683;28;20528;-71
2023/03/12 08:58:20;;;;;;;6.00;3.80;;;13.70;99.90;;;;;;5075616;28;20417;-72
2023/03/12 09:00:46;;;;;;;3.13;2.20;;;13.00;99.90;;;;;;5075519;28;20271;-72
2023/03/12 09:03:13;;;;;;;3.05;1.92;;;13.00;99.90;;;;;;5075303;28;20268;-72
2023/03/12 09:05:42;;;;;;;5.97;2.88;;;12.90;99.90;;;;;;5075327;28;20021;-72
2023/03/12 09:08:09;;;;;;;6.88;3.40;;;13.80;99.90;;;;;;5075439;28;20024;-73
2023/03/12 09:10:36;;;;;;;5.78;2.70;;;14.50;99.90;;;;;;5075354;28;20489;-72
2023/03/12 09:13:03;;;;;;;2.78;1.88;;;14.90;99.90;;;;;;5075290;28;20420;-72
2023/03/12 09:15:29;;;;;;;3.63;2.33;;;15.00;99.90;;;;;;5075368;28;20102;-72
2023/03/12 09:17:55;;;;;;;2.58;1.75;;;14.20;99.90;;;;;;5075237;28;20094;-72
2023/03/12 09:20:22;;;;;;;2.75;1.75;;;13.20;99.90;;;;;;5075287;28;20075;-72
2023/03/12 09:22:48;;;;;;;5.00;2.00;;;13.50;99.90;;;;;;5075245;28;20433;-72
2023/03/12 09:25:14;;;;;;;4.40;2.20;;;13.90;99.90;;;;;;5075013;28;20028;-73
2023/03/12 09:27:43;;;;;;;4.22;2.20;;;12.70;99.90;;;;;;5074976;28;20439;-73
2023/03/12 09:30:12;;;;;;;9.55;5.38;;;13.20;99.90;;;;;;5075086;28;20021;-73
2023/03/12 09:32:38;;;;;;;8.98;3.95;;;13.60;99.90;;;;;;5074876;28;20126;-73
2023/03/12 09:35:05;;;;;;;3.55;1.95;;;13.40;99.90;;;;;;5074861;28;20029;-73
2023/03/12 09:37:32;;;;;;;4.18;1.83;;;13.20;99.90;;;;;;5075259;28;20040;-72
2023/03/12 09:39:58;;;;;;;3.63;2.08;;;13.50;99.90;;;;;;5074846;28;20039;-73
2023/03/12 09:42:38;;;;;;;4.07;1.67;;;14.30;99.90;;;;;;5074970;28;20028;-73
2023/03/12 09:45:06;;;;;;;28.48;15.50;;;14.00;99.90;;;;;;5074850;28;20209;-73
2023/03/12 09:47:45;;;;;;;4.00;1.60;;;14.00;99.90;;;;;;5074827;28;20036;-73
2023/03/12 09:50:33;;;;;;;2.75;1.83;;;14.40;99.90;;;;;;5074786;28;20486;-73
2023/03/12 09:53:15;;;;;;;2.65;1.65;;;15.30;99.90;;;;;;5074651;28;20028;-72
2023/03/12 09:55:44;;;;;;;3.78;2.15;;;15.10;99.90;;;;;;5075036;28;20041;-72
2023/03/12 09:58:27;;;;;;;4.03;2.08;;;15.30;99.90;;;;;;5074787;28;20030;-72
2023/03/12 10:01:06;;;;;;;2.83;1.90;;;15.60;99.90;;;;;;5074523;28;20052;-72
2023/03/12 10:03:41;;;;;;;3.47;2.05;;;16.20;99.90;;;;;;5074600;28;20095;-73
2023/03/12 10:06:11;;;;;;;3.55;2.70;;;16.00;99.90;;;;;;5074308;28;20036;-72
2023/03/12 10:08:37;;;;;;;5.00;3.00;;;15.00;99.90;;;;;;5074577;28;20033;-72
2023/03/12 10:11:31;;;;;;;4.20;2.53;;;15.10;99.90;;;;;;5074562;28;20028;-72
2023/03/12 10:14:06;;;;;;;3.15;2.38;;;14.60;99.90;;;;;;5073905;28;20245;-72
2023/03/12 10:16:46;;;;;;;5.65;2.20;;;15.00;99.90;;;;;;5074209;28;20048;-72
2023/03/12 10:19:31;;;;;;;4.10;2.55;;;15.40;99.90;;;;;;5074377;28;20058;-72
2023/03/12 10:22:20;;;;;;;3.30;2.60;;;15.60;99.90;;;;;;5074397;28;20029;-72
2023/03/12 10:25:04;;;;;;;3.92;2.40;;;15.20;99.90;;;;;;5074380;28;20025;-72
2023/03/12 10:27:34;;;;;;;5.13;2.70;;;15.50;99.90;;;;;;5074231;28;20478;-72
2023/03/12 10:30:01;;;;;;;5.00;2.70;;;15.40;99.90;;;;;;5074335;28;20107;-72
2023/03/12 10:33:00;;;;;;;5.85;3.13;;;15.30;99.90;;;;;;5074365;28;20377;-72
2023/03/12 10:35:31;;;;;;;6.80;2.65;;;15.20;99.90;;;;;;5074385;28;20047;-73
2023/03/12 10:38:02;;;;;;;3.92;2.83;;;15.30;99.90;;;;;;5074282;28;20488;-72
2023/03/12 10:40:32;;;;;;;3.35;2.58;;;15.10;99.90;;;;;;5074256;28;20478;-72
2023/03/12 10:43:00;;;;;;;3.85;2.63;;;15.30;99.90;;;;;;5074230;28;20082;-72
2023/03/12 10:45:55;;;;;;;4.25;2.60;;;15.90;99.90;;;;;;5074195;28;20032;-73
2023/03/12 10:48:24;;;;;;;3.83;2.67;;;16.00;99.90;;;;;;5074216;28;20037;-72
2023/03/12 10:51:09;;;;;;;5.82;2.53;;;15.80;99.90;;;;;;5074099;28;20539;-73
2023/03/12 10:53:43;;;;;;;4.40;2.13;;;15.40;99.90;;;;;;5074041;28;20025;-73
2023/03/12 10:56:19;;;;;;;6.38;2.47;;;15.30;99.90;;;;;;5074004;28;20089;-72
2023/03/12 10:58:47;;;;;;;2.88;2.05;;;16.10;99.90;;;;;;5072816;28;20047;-72
2023/03/12 11:01:26;;;;;;;4.07;2.55;;;16.00;99.90;;;;;;5073937;28;20470;-73
2023/03/12 11:04:07;;;;;;;4.63;2.20;;;16.00;99.90;;;;;;5073943;28;20086;-73
2023/03/12 11:06:33;;;;;;;4.53;2.38;;;15.80;99.90;;;;;;5073753;28;20029;-73
2023/03/12 11:09:16;;;;;;;6.05;3.25;;;15.80;99.90;;;;;;5074083;28;20036;-73
2023/03/12 11:11:44;;;;;;;5.80;3.20;;;16.40;99.90;;;;;;5073850;28;20075;-73
2023/03/12 11:14:11;;;;;;;4.32;2.92;;;16.00;99.90;;;;;;5073940;28;20032;-73
2023/03/12 11:16:38;;;;;;;4.35;2.50;;;16.30;99.90;;;;;;5073853;28;20025;-73
2023/03/12 11:19:05;;;;;;;4.50;2.35;;;16.10;99.90;;;;;;5073894;28;20097;-73
2023/03/12 11:21:37;;;;;;;3.90;2.42;;;16.40;99.90;;;;;;5073801;28;20044;-73
2023/03/12 11:24:11;;;;;;;4.38;2.55;;;16.20;99.90;;;;;;5073864;28;20028;-73
2023/03/12 11:27:15;;;;;;;4.70;2.25;;;16.30;99.90;;;;;;5076298;28;20305;-73
2023/03/12 11:29:47;;;;;;;4.50;2.55;;;16.40;99.90;;;;;;5068882;28;20048;-72
2023/03/12 11:32:19;;;;;;;3.63;2.40;;;16.90;99.90;;;;;;5077127;28;20024;-72
2023/03/12 11:34:49;;;;;;;6.50;3.63;;;17.00;99.90;;;;;;5077442;28;20024;-73
2023/03/12 11:37:48;;;;;;;6.93;2.95;;;16.20;99.90;;;;;;5077304;28;20034;-73
2023/03/12 11:40:47;;;;;;;4.03;2.60;;;16.10;99.90;;;;;;5077118;28;20024;-72
2023/03/12 11:43:43;;;;;;;5.35;2.45;;;16.10;99.90;;;;;;5077198;28;20034;-72
2023/03/12 11:46:36;;;;;;;2.65;2.08;;;16.40;99.90;;;;;;5076889;28;20090;-72
2023/03/12 11:49:27;;;;;;;3.08;2.00;;;16.20;99.90;;;;;;5077080;28;20036;-73
2023/03/12 11:52:02;;;;;;;3.97;1.88;;;16.30;99.90;;;;;;5076970;28;20031;-72
2023/03/12 11:54:39;;;;;;;3.78;2.05;;;16.70;99.90;;;;;;5076932;28;20029;-72
2023/03/12 11:57:26;;;;;;;5.82;2.55;;;17.10;99.90;;;;;;5076945;28;20033;-73
2023/03/12 12:00:05;;;;;;;4.70;1.98;;;17.00;99.90;;;;;;5076985;28;20028;-72
2023/03/12 12:02:56;;;;;;;4.80;2.40;;;16.40;99.90;;;;;;5076647;28;20037;-72
2023/03/12 12:05:22;;;;;;;3.47;2.40;;;16.10;99.90;;;;;;5076617;28;20040;-72
2023/03/12 12:08:08;;;;;;;3.00;2.25;;;15.60;99.90;;;;;;5076562;28;20029;-72
2023/03/12 12:10:52;;;;;;;6.95;2.35;;;15.50;99.90;;;;;;5065115;28;20111;-73
2023/03/12 12:13:51;;;;;;;5.00;2.97;;;16.00;99.90;;;;;;5076684;28;20032;-73
2023/03/12 12:16:32;;;;;;;9.40;4.18;;;16.20;99.90;;;;;;5076277;28;20039;-73
2023/03/12 12:19:24;;;;;;;5.60;3.00;;;16.30;99.90;;;;;;5076512;28;20095;-73
2023/03/12 12:22:15;;;;;;;4.80;3.22;;;15.90;99.90;;;;;;5064875;28;20063;-73
2023/03/12 12:25:00;;;;;;;5.82;2.70;;;16.30;99.90;;;;;;5076444;28;20107;-73
2023/03/12 12:27:37;;;;;;;6.05;2.60;;;16.50;99.90;;;;;;5076147;28;20033;-73
2023/03/12 12:30:06;;;;;;;6.50;3.65;;;17.00;99.90;;;;;;5076236;28;20089;-73
2023/03/12 12:32:53;;;;;;;2.58;2.15;;;16.60;99.90;;;;;;5076120;28;20032;-72
2023/03/12 12:35:26;;;;;;;2.88;2.13;;;16.70;99.90;;;;;;5076104;28;20079;-73
2023/03/12 12:38:02;;;;;;;4.25;2.70;;;16.40;99.90;;;;;;5075595;28;20462;-73
2023/03/12 12:41:00;;;;;;;4.65;3.30;;;16.40;99.90;;;;;;5076073;28;20036;-73
2023/03/12 12:43:29;;;;;;;5.03;2.35;;;16.00;99.90;;;;;;5075944;28;20028;-73
2023/03/12 12:46:02;;;;;;;4.22;2.60;;;15.90;99.90;;;;;;5075947;28;20496;-73
2023/03/12 12:48:47;;;;;;;7.30;3.72;;;15.40;99.90;;;;;;5075794;28;20052;-73
2023/03/12 12:51:15;;;;;;;3.45;1.88;;;15.00;99.90;;;;;;5075845;28;20108;-73
2023/03/12 12:54:05;;;;;;;4.85;2.70;;;15.30;99.90;;;;;;5075729;28;20051;-73
2023/03/12 12:56:56;;;;;;;5.47;2.92;;;15.40;99.90;;;;;;5075696;28;20025;-74